sensor_id;sensor_type;location;lat;lon;timestamp;P1;durP1;ratioP1;P2;durP2;ratioP2
66127;SDS011;52925;52.436;-1.952;2023-07-09T00:01:06;2.60;;;1.60;;
66127;SDS011;52925;52.436;-1.952;2023-07-09T00:02:29;3.83;;;1.47;;
66127;SDS011;52925;52.436;-1.952;2023-07-09T00:03:49;5.73;;;1.90;;
66127;SDS011;52925;52.436;-1.952;2023-07-09T00:05:13;3.63;;;1.60;;
66127;SDS011;52925;52.436;-1.952;2023-07-09T00:06:35;2.80;;;1.60;;
66127;SDS011;52925;52.436;-1.952;2023-07-09T00:07:56;3.90;;;1.67;;
66127;SDS011;52925;52.436;-1.952;2023-07-09T00:09:20;5.17;;;1.40;;
66127;SDS011;52925;52.436;-1.952;2023-07-09T00:10:40;4.57;;;2.00;;
66127;SDS011;52925;52.436;-1.952;2023-07-09T00:12:01;2.40;;;1.50;;
66127;SDS011;52925;52.436;-1.952;2023-07-09T00:13:21;2.97;;;1.60;;
66127;SDS011;52925;52.436;-1.952;2023-07-09T00:14:42;4.13;;;1.90;;
66127;SDS011;52925;52.436;-1.952;2023-07-09T00:16:07;4.50;;;1.53;;
66127;SDS011;52925;52.436;-1.952;2023-07-09T00:17:34;3.00;;;1.50;;
66127;SDS011;52925;52.436;-1.952;2023-07-09T00:18:54;3.27;;;1.80;;
66127;SDS011;52925;52.436;-1.952;2023-07-09T00:20:15;3.67;;;1.60;;
66127;SDS011;52925;52.436;-1.952;2023-07-09T00:21:37;5.30;;;1.53;;
66127;SDS011;52925;52.436;-1.952;2023-07-09T00:22:59;5.23;;;2.13;;
66127;SDS011;52925;52.436;-1.952;2023-07-09T00:24:19;3.90;;;2.00;;
66127;SDS011;52925;52.436;-1.952;2023-07-09T00:25:40;4.87;;;1.97;;
66127;SDS011;52925;52.436;-1.952;2023-07-09T00:27:04;6.13;;;1.80;;
66127;SDS011;52925;52.436;-1.952;2023-07-09T00:28:28;4.13;;;1.73;;
66127;SDS011;52925;52.436;-1.952;2023-07-09T00:29:48;5.73;;;1.70;;
66127;SDS011;52925;52.436;-1.952;2023-07-09T00:31:12;3.33;;;1.70;;
66127;SDS011;52925;52.436;-1.952;2023-07-09T00:32:33;7.43;;;1.90;;
66127;SDS011;52925;52.436;-1.952;2023-07-09T00:34:02;6.30;;;1.93;;
66127;SDS011;52925;52.436;-1.952;2023-07-09T00:35:22;4.63;;;1.80;;
66127;SDS011;52925;52.436;-1.952;2023-07-09T00:36:44;3.63;;;1.60;;
66127;SDS011;52925;52.436;-1.952;2023-07-09T00:38:07;5.13;;;2.00;;
66127;SDS011;52925;52.436;-1.952;2023-07-09T00:39:32;5.83;;;1.90;;
66127;SDS011;52925;52.436;-1.952;2023-07-09T00:41:01;6.87;;;2.13;;
66127;SDS011;52925;52.436;-1.952;2023-07-09T00:42:24;5.90;;;2.10;;
66127;SDS011;52925;52.436;-1.952;2023-07-09T00:43:44;3.97;;;1.60;;
66127;SDS011;52925;52.436;-1.952;2023-07-09T00:45:07;3.53;;;1.67;;
66127;SDS011;52925;52.436;-1.952;2023-07-09T00:48:36;5.33;;;1.80;;
66127;SDS011;52925;52.436;-1.952;2023-07-09T00:50:08;3.80;;;1.80;;
66127;SDS011;52925;52.436;-1.952;2023-07-09T00:51:32;3.13;;;1.80;;
66127;SDS011;52925;52.436;-1.952;2023-07-09T00:52:55;8.17;;;2.00;;
66127;SDS011;52925;52.436;-1.952;2023-07-09T00:54:23;3.37;;;1.60;;
66127;SDS011;52925;52.436;-1.952;2023-07-09T00:55:51;4.97;;;2.23;;
66127;SDS011;52925;52.436;-1.952;2023-07-09T00:57:16;6.20;;;2.00;;
66127;SDS011;52925;52.436;-1.952;2023-07-09T00:58:39;7.17;;;2.30;;
66127;SDS011;52925;52.436;-1.952;2023-07-09T01:00:04;4.70;;;1.90;;
66127;SDS011;52925;52.436;-1.952;2023-07-09T01:01:29;5.67;;;1.87;;
66127;SDS011;52925;52.436;-1.952;2023-07-09T01:02:51;7.83;;;2.03;;
66127;SDS011;52925;52.436;-1.952;2023-07-09T01:04:11;6.33;;;2.27;;
66127;SDS011;52925;52.436;-1.952;2023-07-09T01:05:32;3.73;;;1.77;;
66127;SDS011;52925;52.436;-1.952;2023-07-09T01:06:55;2.90;;;1.70;;
66127;SDS011;52925;52.436;-1.952;2023-07-09T01:08:15;3.53;;;2.10;;
66127;SDS011;52925;52.436;-1.952;2023-07-09T01:09:39;3.10;;;1.80;;
66127;SDS011;52925;52.436;-1.952;2023-07-09T01:10:59;5.40;;;2.37;;
66127;SDS011;52925;52.436;-1.952;2023-07-09T01:12:21;4.70;;;2.00;;
66127;SDS011;52925;52.436;-1.952;2023-07-09T01:13:42;3.97;;;1.63;;
66127;SDS011;52925;52.436;-1.952;2023-07-09T01:15:06;3.67;;;2.07;;
66127;SDS011;52925;52.436;-1.952;2023-07-09T01:16:27;3.60;;;2.07;;
66127;SDS011;52925;52.436;-1.952;2023-07-09T01:17:50;4.33;;;1.93;;
66127;SDS011;52925;52.436;-1.952;2023-07-09T01:19:12;4.87;;;2.67;;
66127;SDS011;52925;52.436;-1.952;2023-07-09T01:20:35;6.30;;;2.40;;
66127;SDS011;52925;52.436;-1.952;2023-07-09T01:21:58;5.73;;;2.20;;
66127;SDS011;52925;52.436;-1.952;2023-07-09T01:23:20;4.70;;;2.00;;
66127;SDS011;52925;52.436;-1.952;2023-07-09T01:26:26;6.30;;;2.10;;
66127;SDS011;52925;52.436;-1.952;2023-07-09T01:27:46;5.10;;;2.13;;
66127;SDS011;52925;52.436;-1.952;2023-07-09T01:29:08;4.77;;;2.00;;
66127;SDS011;52925;52.436;-1.952;2023-07-09T01:30:32;5.00;;;2.00;;
66127;SDS011;52925;52.436;-1.952;2023-07-09T01:31:57;6.93;;;2.30;;
66127;SDS011;52925;52.436;-1.952;2023-07-09T01:33:17;4.90;;;2.10;;
66127;SDS011;52925;52.436;-1.952;2023-07-09T01:34:37;4.10;;;1.67;;
66127;SDS011;52925;52.436;-1.952;2023-07-09T01:35:58;7.63;;;2.30;;
66127;SDS011;52925;52.436;-1.952;2023-07-09T01:37:21;5.57;;;2.07;;
66127;SDS011;52925;52.436;-1.952;2023-07-09T01:38:43;5.80;;;2.10;;
66127;SDS011;52925;52.436;-1.952;2023-07-09T01:40:05;3.73;;;2.03;;
66127;SDS011;52925;52.436;-1.952;2023-07-09T01:41:28;4.90;;;2.17;;
66127;SDS011;52925;52.436;-1.952;2023-07-09T01:42:49;5.40;;;2.37;;
66127;SDS011;52925;52.436;-1.952;2023-07-09T01:44:09;6.33;;;2.23;;
66127;SDS011;52925;52.436;-1.952;2023-07-09T01:45:30;7.20;;;2.20;;
66127;SDS011;52925;52.436;-1.952;2023-07-09T01:46:51;8.80;;;2.33;;
66127;SDS011;52925;52.436;-1.952;2023-07-09T01:48:12;4.97;;;2.17;;
66127;SDS011;52925;52.436;-1.952;2023-07-09T01:49:35;7.67;;;2.37;;
66127;SDS011;52925;52.436;-1.952;2023-07-09T01:50:58;4.37;;;2.30;;
66127;SDS011;52925;52.436;-1.952;2023-07-09T01:52:18;8.43;;;2.63;;
66127;SDS011;52925;52.436;-1.952;2023-07-09T01:53:42;5.90;;;2.37;;
66127;SDS011;52925;52.436;-1.952;2023-07-09T01:55:03;7.10;;;2.30;;
66127;SDS011;52925;52.436;-1.952;2023-07-09T01:56:25;7.50;;;2.40;;
66127;SDS011;52925;52.436;-1.952;2023-07-09T01:57:45;4.83;;;2.50;;
66127;SDS011;52925;52.436;-1.952;2023-07-09T01:59:06;8.03;;;2.10;;
66127;SDS011;52925;52.436;-1.952;2023-07-09T02:00:26;8.13;;;2.40;;
66127;SDS011;52925;52.436;-1.952;2023-07-09T02:01:46;4.43;;;2.37;;
66127;SDS011;52925;52.436;-1.952;2023-07-09T02:03:06;5.43;;;1.70;;
66127;SDS011;52925;52.436;-1.952;2023-07-09T02:04:29;6.67;;;2.23;;
66127;SDS011;52925;52.436;-1.952;2023-07-09T02:05:52;5.37;;;2.57;;
66127;SDS011;52925;52.436;-1.952;2023-07-09T02:07:14;5.33;;;2.40;;
66127;SDS011;52925;52.436;-1.952;2023-07-09T02:08:34;5.97;;;2.20;;
66127;SDS011;52925;52.436;-1.952;2023-07-09T02:09:57;5.30;;;2.10;;
66127;SDS011;52925;52.436;-1.952;2023-07-09T02:11:17;5.30;;;2.03;;
66127;SDS011;52925;52.436;-1.952;2023-07-09T02:12:38;6.23;;;2.00;;
66127;SDS011;52925;52.436;-1.952;2023-07-09T02:13:58;4.47;;;1.70;;
66127;SDS011;52925;52.436;-1.952;2023-07-09T02:15:19;7.47;;;2.20;;
66127;SDS011;52925;52.436;-1.952;2023-07-09T02:16:39;6.10;;;2.10;;
66127;SDS011;52925;52.436;-1.952;2023-07-09T02:18:00;7.90;;;2.30;;
66127;SDS011;52925;52.436;-1.952;2023-07-09T02:19:21;5.07;;;2.17;;
66127;SDS011;52925;52.436;-1.952;2023-07-09T02:20:41;6.90;;;2.23;;
66127;SDS011;52925;52.436;-1.952;2023-07-09T02:22:02;7.53;;;2.17;;
66127;SDS011;52925;52.436;-1.952;2023-07-09T02:23:25;10.33;;;2.40;;
66127;SDS011;52925;52.436;-1.952;2023-07-09T02:24:47;3.90;;;2.00;;
66127;SDS011;52925;52.436;-1.952;2023-07-09T02:26:08;6.10;;;2.17;;
66127;SDS011;52925;52.436;-1.952;2023-07-09T02:27:29;4.83;;;2.13;;
66127;SDS011;52925;52.436;-1.952;2023-07-09T02:28:49;4.97;;;1.90;;
66127;SDS011;52925;52.436;-1.952;2023-07-09T02:30:09;6.37;;;2.30;;
66127;SDS011;52925;52.436;-1.952;2023-07-09T02:31:29;7.93;;;2.43;;
66127;SDS011;52925;52.436;-1.952;2023-07-09T02:32:53;4.90;;;1.90;;
66127;SDS011;52925;52.436;-1.952;2023-07-09T02:34:13;7.43;;;2.00;;
66127;SDS011;52925;52.436;-1.952;2023-07-09T02:35:34;3.93;;;2.00;;
66127;SDS011;52925;52.436;-1.952;2023-07-09T02:36:55;4.93;;;1.87;;
66127;SDS011;52925;52.436;-1.952;2023-07-09T02:38:17;5.40;;;2.20;;
66127;SDS011;52925;52.436;-1.952;2023-07-09T02:39:37;7.07;;;1.90;;
66127;SDS011;52925;52.436;-1.952;2023-07-09T02:40:58;5.40;;;1.63;;
66127;SDS011;52925;52.436;-1.952;2023-07-09T02:42:20;6.73;;;2.00;;
66127;SDS011;52925;52.436;-1.952;2023-07-09T02:43:42;5.13;;;1.73;;
66127;SDS011;52925;52.436;-1.952;2023-07-09T02:45:04;5.43;;;1.90;;
66127;SDS011;52925;52.436;-1.952;2023-07-09T02:46:26;5.97;;;1.93;;
66127;SDS011;52925;52.436;-1.952;2023-07-09T02:47:46;8.37;;;2.00;;
66127;SDS011;52925;52.436;-1.952;2023-07-09T02:49:09;6.10;;;1.80;;
66127;SDS011;52925;52.436;-1.952;2023-07-09T02:50:30;12.37;;;2.23;;
66127;SDS011;52925;52.436;-1.952;2023-07-09T02:51:51;6.27;;;2.03;;
66127;SDS011;52925;52.436;-1.952;2023-07-09T02:53:11;4.87;;;1.60;;
66127;SDS011;52925;52.436;-1.952;2023-07-09T02:54:31;5.13;;;1.90;;
66127;SDS011;52925;52.436;-1.952;2023-07-09T02:55:51;5.87;;;1.87;;
66127;SDS011;52925;52.436;-1.952;2023-07-09T02:57:12;4.03;;;1.53;;
66127;SDS011;52925;52.436;-1.952;2023-07-09T02:58:33;5.47;;;1.87;;
66127;SDS011;52925;52.436;-1.952;2023-07-09T02:59:54;4.73;;;1.70;;
66127;SDS011;52925;52.436;-1.952;2023-07-09T03:01:14;4.97;;;1.60;;
66127;SDS011;52925;52.436;-1.952;2023-07-09T03:02:35;9.80;;;2.10;;
66127;SDS011;52925;52.436;-1.952;2023-07-09T03:03:56;4.47;;;1.80;;
66127;SDS011;52925;52.436;-1.952;2023-07-09T03:05:18;6.23;;;2.10;;
66127;SDS011;52925;52.436;-1.952;2023-07-09T03:06:39;5.30;;;1.70;;
66127;SDS011;52925;52.436;-1.952;2023-07-09T03:07:59;6.27;;;1.67;;
66127;SDS011;52925;52.436;-1.952;2023-07-09T03:09:20;5.47;;;1.53;;
66127;SDS011;52925;52.436;-1.952;2023-07-09T03:10:40;8.73;;;1.90;;
66127;SDS011;52925;52.436;-1.952;2023-07-09T03:12:01;6.03;;;1.60;;
66127;SDS011;52925;52.436;-1.952;2023-07-09T03:13:21;5.20;;;1.50;;
66127;SDS011;52925;52.436;-1.952;2023-07-09T03:14:43;7.43;;;1.70;;
66127;SDS011;52925;52.436;-1.952;2023-07-09T03:16:06;5.40;;;1.70;;
66127;SDS011;52925;52.436;-1.952;2023-07-09T03:17:26;7.27;;;1.70;;
66127;SDS011;52925;52.436;-1.952;2023-07-09T03:18:46;7.23;;;1.77;;
66127;SDS011;52925;52.436;-1.952;2023-07-09T03:20:07;6.13;;;1.57;;
66127;SDS011;52925;52.436;-1.952;2023-07-09T03:21:27;4.57;;;1.53;;
66127;SDS011;52925;52.436;-1.952;2023-07-09T03:22:49;4.07;;;1.57;;
66127;SDS011;52925;52.436;-1.952;2023-07-09T03:24:08;7.33;;;2.20;;
66127;SDS011;52925;52.436;-1.952;2023-07-09T03:25:29;6.73;;;1.87;;
66127;SDS011;52925;52.436;-1.952;2023-07-09T03:26:49;6.67;;;1.90;;
66127;SDS011;52925;52.436;-1.952;2023-07-09T03:28:10;6.10;;;1.93;;
66127;SDS011;52925;52.436;-1.952;2023-07-09T03:29:30;8.33;;;1.67;;
66127;SDS011;52925;52.436;-1.952;2023-07-09T03:30:53;4.33;;;1.37;;
66127;SDS011;52925;52.436;-1.952;2023-07-09T03:32:14;8.90;;;1.83;;
66127;SDS011;52925;52.436;-1.952;2023-07-09T03:33:34;4.90;;;1.60;;
66127;SDS011;52925;52.436;-1.952;2023-07-09T03:34:54;5.10;;;1.67;;
66127;SDS011;52925;52.436;-1.952;2023-07-09T03:36:15;4.20;;;1.50;;
66127;SDS011;52925;52.436;-1.952;2023-07-09T03:37:37;5.90;;;1.43;;
66127;SDS011;52925;52.436;-1.952;2023-07-09T03:38:57;5.27;;;1.47;;
66127;SDS011;52925;52.436;-1.952;2023-07-09T03:40:20;7.47;;;1.80;;
66127;SDS011;52925;52.436;-1.952;2023-07-09T03:41:41;8.17;;;1.80;;
66127;SDS011;52925;52.436;-1.952;2023-07-09T03:43:01;5.47;;;1.67;;
66127;SDS011;52925;52.436;-1.952;2023-07-09T03:44:21;5.83;;;1.70;;
66127;SDS011;52925;52.436;-1.952;2023-07-09T03:45:43;5.33;;;1.67;;
66127;SDS011;52925;52.436;-1.952;2023-07-09T03:47:06;5.53;;;1.50;;
66127;SDS011;52925;52.436;-1.952;2023-07-09T03:48:27;4.60;;;1.43;;
66127;SDS011;52925;52.436;-1.952;2023-07-09T03:49:48;6.47;;;1.40;;
66127;SDS011;52925;52.436;-1.952;2023-07-09T03:51:08;4.10;;;1.40;;
66127;SDS011;52925;52.436;-1.952;2023-07-09T03:52:29;7.00;;;1.70;;
66127;SDS011;52925;52.436;-1.952;2023-07-09T03:53:48;5.77;;;1.53;;
66127;SDS011;52925;52.436;-1.952;2023-07-09T03:55:09;5.03;;;1.60;;
66127;SDS011;52925;52.436;-1.952;2023-07-09T03:56:29;7.23;;;1.80;;
66127;SDS011;52925;52.436;-1.952;2023-07-09T03:57:50;6.93;;;1.60;;
66127;SDS011;52925;52.436;-1.952;2023-07-09T03:59:10;5.80;;;1.60;;
66127;SDS011;52925;52.436;-1.952;2023-07-09T04:00:30;7.20;;;2.10;;
66127;SDS011;52925;52.436;-1.952;2023-07-09T04:01:51;5.33;;;1.70;;
66127;SDS011;52925;52.436;-1.952;2023-07-09T04:03:13;6.00;;;1.57;;
66127;SDS011;52925;52.436;-1.952;2023-07-09T04:04:33;5.77;;;1.60;;
66127;SDS011;52925;52.436;-1.952;2023-07-09T04:05:54;6.47;;;1.50;;
66127;SDS011;52925;52.436;-1.952;2023-07-09T04:07:14;6.17;;;1.47;;
66127;SDS011;52925;52.436;-1.952;2023-07-09T04:08:35;7.60;;;1.60;;
66127;SDS011;52925;52.436;-1.952;2023-07-09T04:09:55;4.93;;;1.27;;
66127;SDS011;52925;52.436;-1.952;2023-07-09T04:11:15;7.37;;;1.73;;
66127;SDS011;52925;52.436;-1.952;2023-07-09T04:12:36;8.23;;;1.80;;
66127;SDS011;52925;52.436;-1.952;2023-07-09T04:13:56;6.17;;;1.67;;
66127;SDS011;52925;52.436;-1.952;2023-07-09T04:15:17;5.67;;;1.57;;
66127;SDS011;52925;52.436;-1.952;2023-07-09T04:16:37;4.77;;;1.50;;
66127;SDS011;52925;52.436;-1.952;2023-07-09T04:17:57;6.37;;;1.90;;
66127;SDS011;52925;52.436;-1.952;2023-07-09T04:19:18;5.87;;;1.67;;
66127;SDS011;52925;52.436;-1.952;2023-07-09T04:20:39;7.03;;;1.60;;
66127;SDS011;52925;52.436;-1.952;2023-07-09T04:22:00;7.80;;;1.90;;
66127;SDS011;52925;52.436;-1.952;2023-07-09T04:23:20;5.10;;;1.30;;
66127;SDS011;52925;52.436;-1.952;2023-07-09T04:24:41;4.70;;;1.20;;
66127;SDS011;52925;52.436;-1.952;2023-07-09T04:26:00;6.50;;;1.77;;
66127;SDS011;52925;52.436;-1.952;2023-07-09T04:27:23;5.43;;;1.33;;
66127;SDS011;52925;52.436;-1.952;2023-07-09T04:28:46;7.70;;;2.07;;
66127;SDS011;52925;52.436;-1.952;2023-07-09T04:30:08;8.30;;;1.50;;
66127;SDS011;52925;52.436;-1.952;2023-07-09T04:31:29;7.40;;;1.77;;
66127;SDS011;52925;52.436;-1.952;2023-07-09T04:32:50;9.37;;;2.03;;
66127;SDS011;52925;52.436;-1.952;2023-07-09T04:34:10;4.87;;;1.50;;
66127;SDS011;52925;52.436;-1.952;2023-07-09T04:35:32;7.47;;;2.17;;
66127;SDS011;52925;52.436;-1.952;2023-07-09T04:36:52;7.93;;;1.60;;
66127;SDS011;52925;52.436;-1.952;2023-07-09T04:38:13;7.07;;;1.57;;
66127;SDS011;52925;52.436;-1.952;2023-07-09T04:39:34;6.53;;;1.40;;
66127;SDS011;52925;52.436;-1.952;2023-07-09T04:40:55;6.47;;;1.50;;
66127;SDS011;52925;52.436;-1.952;2023-07-09T04:42:15;9.20;;;1.93;;
66127;SDS011;52925;52.436;-1.952;2023-07-09T04:43:37;7.67;;;1.70;;
66127;SDS011;52925;52.436;-1.952;2023-07-09T04:44:57;5.23;;;1.53;;
66127;SDS011;52925;52.436;-1.952;2023-07-09T04:46:17;6.27;;;1.50;;
66127;SDS011;52925;52.436;-1.952;2023-07-09T04:47:37;5.63;;;2.07;;
66127;SDS011;52925;52.436;-1.952;2023-07-09T04:48:59;5.90;;;1.60;;
66127;SDS011;52925;52.436;-1.952;2023-07-09T04:50:19;5.47;;;1.50;;
66127;SDS011;52925;52.436;-1.952;2023-07-09T04:51:41;4.67;;;1.53;;
66127;SDS011;52925;52.436;-1.952;2023-07-09T04:53:01;4.93;;;1.40;;
66127;SDS011;52925;52.436;-1.952;2023-07-09T04:54:22;5.40;;;1.40;;
66127;SDS011;52925;52.436;-1.952;2023-07-09T04:55:42;7.03;;;1.57;;
66127;SDS011;52925;52.436;-1.952;2023-07-09T04:57:03;5.60;;;1.50;;
66127;SDS011;52925;52.436;-1.952;2023-07-09T04:58:23;7.50;;;1.53;;
66127;SDS011;52925;52.436;-1.952;2023-07-09T04:59:44;6.40;;;1.60;;
66127;SDS011;52925;52.436;-1.952;2023-07-09T05:01:04;3.83;;;1.20;;
66127;SDS011;52925;52.436;-1.952;2023-07-09T05:02:25;5.07;;;1.47;;
66127;SDS011;52925;52.436;-1.952;2023-07-09T05:03:45;5.50;;;1.40;;
66127;SDS011;52925;52.436;-1.952;2023-07-09T05:05:06;4.90;;;1.23;;
66127;SDS011;52925;52.436;-1.952;2023-07-09T05:06:26;7.40;;;1.97;;
66127;SDS011;52925;52.436;-1.952;2023-07-09T05:07:48;3.43;;;1.17;;
66127;SDS011;52925;52.436;-1.952;2023-07-09T05:09:08;6.50;;;1.40;;
66127;SDS011;52925;52.436;-1.952;2023-07-09T05:10:29;5.77;;;1.37;;
66127;SDS011;52925;52.436;-1.952;2023-07-09T05:11:49;7.03;;;1.67;;
66127;SDS011;52925;52.436;-1.952;2023-07-09T05:13:10;5.47;;;1.40;;
66127;SDS011;52925;52.436;-1.952;2023-07-09T05:14:32;6.97;;;2.00;;
66127;SDS011;52925;52.436;-1.952;2023-07-09T05:15:52;5.30;;;1.30;;
66127;SDS011;52925;52.436;-1.952;2023-07-09T05:17:12;6.43;;;1.43;;
66127;SDS011;52925;52.436;-1.952;2023-07-09T05:18:32;5.43;;;1.50;;
66127;SDS011;52925;52.436;-1.952;2023-07-09T05:19:53;4.77;;;1.50;;
66127;SDS011;52925;52.436;-1.952;2023-07-09T05:21:13;5.37;;;1.43;;
66127;SDS011;52925;52.436;-1.952;2023-07-09T05:22:33;5.43;;;1.23;;
66127;SDS011;52925;52.436;-1.952;2023-07-09T05:23:54;6.40;;;1.50;;
66127;SDS011;52925;52.436;-1.952;2023-07-09T05:25:16;5.70;;;1.83;;
66127;SDS011;52925;52.436;-1.952;2023-07-09T05:26:35;4.43;;;1.70;;
66127;SDS011;52925;52.436;-1.952;2023-07-09T05:27:56;5.13;;;1.37;;
66127;SDS011;52925;52.436;-1.952;2023-07-09T05:29:16;4.93;;;1.37;;
66127;SDS011;52925;52.436;-1.952;2023-07-09T05:30:37;4.73;;;1.60;;
66127;SDS011;52925;52.436;-1.952;2023-07-09T05:31:59;4.40;;;1.40;;
66127;SDS011;52925;52.436;-1.952;2023-07-09T05:33:20;6.03;;;1.37;;
66127;SDS011;52925;52.436;-1.952;2023-07-09T05:34:41;5.83;;;1.50;;
66127;SDS011;52925;52.436;-1.952;2023-07-09T05:36:01;4.47;;;1.30;;
66127;SDS011;52925;52.436;-1.952;2023-07-09T05:37:22;4.97;;;1.40;;
66127;SDS011;52925;52.436;-1.952;2023-07-09T05:38:42;3.40;;;1.23;;
66127;SDS011;52925;52.436;-1.952;2023-07-09T05:40:04;4.03;;;1.40;;
66127;SDS011;52925;52.436;-1.952;2023-07-09T05:41:26;5.23;;;1.40;;
66127;SDS011;52925;52.436;-1.952;2023-07-09T05:42:46;6.20;;;1.30;;
66127;SDS011;52925;52.436;-1.952;2023-07-09T05:44:07;6.13;;;1.03;;
66127;SDS011;52925;52.436;-1.952;2023-07-09T05:45:28;5.00;;;1.30;;
66127;SDS011;52925;52.436;-1.952;2023-07-09T05:46:49;6.77;;;1.73;;
66127;SDS011;52925;52.436;-1.952;2023-07-09T05:48:08;3.03;;;1.10;;
66127;SDS011;52925;52.436;-1.952;2023-07-09T05:49:29;4.33;;;1.20;;
66127;SDS011;52925;52.436;-1.952;2023-07-09T05:50:53;5.63;;;1.33;;
66127;SDS011;52925;52.436;-1.952;2023-07-09T05:52:14;5.63;;;1.13;;
66127;SDS011;52925;52.436;-1.952;2023-07-09T05:53:35;5.27;;;1.40;;
66127;SDS011;52925;52.436;-1.952;2023-07-09T05:54:56;4.40;;;1.47;;
66127;SDS011;52925;52.436;-1.952;2023-07-09T05:56:17;4.20;;;1.37;;
66127;SDS011;52925;52.436;-1.952;2023-07-09T05:57:38;4.40;;;1.07;;
66127;SDS011;52925;52.436;-1.952;2023-07-09T05:58:59;5.20;;;1.77;;
66127;SDS011;52925;52.436;-1.952;2023-07-09T06:00:20;4.93;;;1.50;;
66127;SDS011;52925;52.436;-1.952;2023-07-09T06:01:40;5.13;;;1.30;;
66127;SDS011;52925;52.436;-1.952;2023-07-09T06:03:00;5.90;;;1.53;;
66127;SDS011;52925;52.436;-1.952;2023-07-09T06:04:22;3.97;;;1.43;;
66127;SDS011;52925;52.436;-1.952;2023-07-09T06:05:44;6.40;;;1.60;;
66127;SDS011;52925;52.436;-1.952;2023-07-09T06:07:04;5.47;;;1.30;;
66127;SDS011;52925;52.436;-1.952;2023-07-09T06:08:25;2.90;;;1.20;;
66127;SDS011;52925;52.436;-1.952;2023-07-09T06:09:45;4.47;;;1.50;;
66127;SDS011;52925;52.436;-1.952;2023-07-09T06:11:06;4.90;;;1.20;;
66127;SDS011;52925;52.436;-1.952;2023-07-09T06:12:28;6.03;;;1.67;;
66127;SDS011;52925;52.436;-1.952;2023-07-09T06:13:49;4.77;;;1.70;;
66127;SDS011;52925;52.436;-1.952;2023-07-09T06:15:09;5.43;;;1.60;;
66127;SDS011;52925;52.436;-1.952;2023-07-09T06:16:31;5.83;;;1.37;;
66127;SDS011;52925;52.436;-1.952;2023-07-09T06:17:52;6.03;;;1.50;;
66127;SDS011;52925;52.436;-1.952;2023-07-09T06:19:12;7.30;;;1.67;;
66127;SDS011;52925;52.436;-1.952;2023-07-09T06:20:33;4.63;;;1.50;;
66127;SDS011;52925;52.436;-1.952;2023-07-09T06:21:53;5.13;;;1.63;;
66127;SDS011;52925;52.436;-1.952;2023-07-09T06:23:15;6.10;;;1.50;;
66127;SDS011;52925;52.436;-1.952;2023-07-09T06:24:34;4.83;;;1.60;;
66127;SDS011;52925;52.436;-1.952;2023-07-09T06:25:55;5.30;;;1.53;;
66127;SDS011;52925;52.436;-1.952;2023-07-09T06:27:15;6.90;;;1.50;;
66127;SDS011;52925;52.436;-1.952;2023-07-09T06:28:37;4.80;;;1.20;;
66127;SDS011;52925;52.436;-1.952;2023-07-09T06:29:57;3.93;;;1.30;;
66127;SDS011;52925;52.436;-1.952;2023-07-09T06:31:17;6.13;;;1.80;;
66127;SDS011;52925;52.436;-1.952;2023-07-09T06:32:39;5.93;;;1.40;;
66127;SDS011;52925;52.436;-1.952;2023-07-09T06:34:00;9.67;;;1.90;;
66127;SDS011;52925;52.436;-1.952;2023-07-09T06:35:20;5.67;;;1.87;;
66127;SDS011;52925;52.436;-1.952;2023-07-09T06:36:41;6.87;;;1.70;;
66127;SDS011;52925;52.436;-1.952;2023-07-09T06:38:02;4.73;;;1.50;;
66127;SDS011;52925;52.436;-1.952;2023-07-09T06:39:22;7.53;;;1.90;;
66127;SDS011;52925;52.436;-1.952;2023-07-09T06:40:42;4.97;;;1.33;;
66127;SDS011;52925;52.436;-1.952;2023-07-09T06:42:03;6.43;;;1.60;;
66127;SDS011;52925;52.436;-1.952;2023-07-09T06:43:48;7.67;;;1.83;;
66127;SDS011;52925;52.436;-1.952;2023-07-09T06:45:09;4.70;;;1.50;;
66127;SDS011;52925;52.436;-1.952;2023-07-09T06:46:29;5.87;;;1.67;;
66127;SDS011;52925;52.436;-1.952;2023-07-09T06:47:50;6.30;;;1.93;;
66127;SDS011;52925;52.436;-1.952;2023-07-09T06:49:10;5.20;;;1.50;;
66127;SDS011;52925;52.436;-1.952;2023-07-09T06:50:32;6.33;;;2.10;;
66127;SDS011;52925;52.436;-1.952;2023-07-09T06:51:53;5.03;;;2.00;;
66127;SDS011;52925;52.436;-1.952;2023-07-09T06:53:14;4.97;;;1.83;;
66127;SDS011;52925;52.436;-1.952;2023-07-09T06:54:34;7.57;;;1.97;;
66127;SDS011;52925;52.436;-1.952;2023-07-09T06:55:55;4.77;;;2.00;;
66127;SDS011;52925;52.436;-1.952;2023-07-09T06:57:17;5.20;;;1.97;;
66127;SDS011;52925;52.436;-1.952;2023-07-09T06:58:38;6.17;;;2.17;;
66127;SDS011;52925;52.436;-1.952;2023-07-09T07:00:01;6.73;;;2.40;;
66127;SDS011;52925;52.436;-1.952;2023-07-09T07:01:22;6.93;;;1.90;;
66127;SDS011;52925;52.436;-1.952;2023-07-09T07:02:43;4.80;;;2.37;;
66127;SDS011;52925;52.436;-1.952;2023-07-09T07:04:03;6.63;;;2.20;;
66127;SDS011;52925;52.436;-1.952;2023-07-09T07:05:24;3.90;;;2.13;;
66127;SDS011;52925;52.436;-1.952;2023-07-09T07:06:44;7.00;;;2.00;;
66127;SDS011;52925;52.436;-1.952;2023-07-09T07:08:04;5.20;;;2.47;;
66127;SDS011;52925;52.436;-1.952;2023-07-09T07:09:25;6.33;;;2.43;;
66127;SDS011;52925;52.436;-1.952;2023-07-09T07:10:47;7.37;;;2.60;;
66127;SDS011;52925;52.436;-1.952;2023-07-09T07:12:08;7.10;;;2.60;;
66127;SDS011;52925;52.436;-1.952;2023-07-09T07:13:29;7.53;;;2.13;;
66127;SDS011;52925;52.436;-1.952;2023-07-09T07:14:51;4.33;;;2.10;;
66127;SDS011;52925;52.436;-1.952;2023-07-09T07:16:12;5.67;;;2.20;;
66127;SDS011;52925;52.436;-1.952;2023-07-09T07:17:33;7.50;;;2.70;;
66127;SDS011;52925;52.436;-1.952;2023-07-09T07:18:53;7.73;;;2.60;;
66127;SDS011;52925;52.436;-1.952;2023-07-09T07:20:14;6.73;;;2.33;;
66127;SDS011;52925;52.436;-1.952;2023-07-09T07:21:35;7.63;;;2.43;;
66127;SDS011;52925;52.436;-1.952;2023-07-09T07:22:56;4.27;;;2.37;;
66127;SDS011;52925;52.436;-1.952;2023-07-09T07:24:16;4.90;;;2.40;;
66127;SDS011;52925;52.436;-1.952;2023-07-09T07:25:37;8.37;;;2.83;;
66127;SDS011;52925;52.436;-1.952;2023-07-09T07:26:57;6.00;;;2.57;;
66127;SDS011;52925;52.436;-1.952;2023-07-09T07:28:18;7.10;;;2.93;;
66127;SDS011;52925;52.436;-1.952;2023-07-09T07:29:39;6.03;;;2.40;;
66127;SDS011;52925;52.436;-1.952;2023-07-09T07:30:59;8.00;;;3.00;;
66127;SDS011;52925;52.436;-1.952;2023-07-09T07:32:22;5.77;;;2.40;;
66127;SDS011;52925;52.436;-1.952;2023-07-09T07:33:41;5.93;;;2.50;;
66127;SDS011;52925;52.436;-1.952;2023-07-09T07:35:03;10.13;;;3.13;;
66127;SDS011;52925;52.436;-1.952;2023-07-09T07:36:23;6.70;;;2.63;;
66127;SDS011;52925;52.436;-1.952;2023-07-09T07:37:44;12.93;;;2.70;;
66127;SDS011;52925;52.436;-1.952;2023-07-09T07:39:03;16.50;;;3.30;;
66127;SDS011;52925;52.436;-1.952;2023-07-09T07:40:24;9.03;;;3.30;;
66127;SDS011;52925;52.436;-1.952;2023-07-09T07:41:44;9.40;;;2.60;;
66127;SDS011;52925;52.436;-1.952;2023-07-09T07:43:05;11.07;;;2.70;;
66127;SDS011;52925;52.436;-1.952;2023-07-09T07:44:26;11.93;;;2.97;;
66127;SDS011;52925;52.436;-1.952;2023-07-09T07:45:47;7.17;;;2.50;;
66127;SDS011;52925;52.436;-1.952;2023-07-09T07:47:08;7.60;;;2.60;;
66127;SDS011;52925;52.436;-1.952;2023-07-09T07:48:29;9.10;;;2.77;;
66127;SDS011;52925;52.436;-1.952;2023-07-09T07:49:50;8.70;;;3.23;;
66127;SDS011;52925;52.436;-1.952;2023-07-09T07:51:10;8.97;;;2.63;;
66127;SDS011;52925;52.436;-1.952;2023-07-09T07:52:31;9.23;;;2.73;;
66127;SDS011;52925;52.436;-1.952;2023-07-09T07:53:51;9.33;;;2.70;;
66127;SDS011;52925;52.436;-1.952;2023-07-09T07:55:13;8.47;;;2.70;;
66127;SDS011;52925;52.436;-1.952;2023-07-09T07:56:32;8.97;;;2.63;;
66127;SDS011;52925;52.436;-1.952;2023-07-09T07:57:53;11.17;;;2.47;;
66127;SDS011;52925;52.436;-1.952;2023-07-09T07:59:16;6.37;;;2.33;;
66127;SDS011;52925;52.436;-1.952;2023-07-09T08:00:37;9.30;;;2.90;;
66127;SDS011;52925;52.436;-1.952;2023-07-09T08:01:57;7.27;;;2.53;;
66127;SDS011;52925;52.436;-1.952;2023-07-09T08:03:18;7.23;;;2.47;;
66127;SDS011;52925;52.436;-1.952;2023-07-09T08:04:39;6.23;;;2.70;;
66127;SDS011;52925;52.436;-1.952;2023-07-09T08:06:00;9.10;;;2.90;;